Time;durP1;ratioP1;P1;durP2;ratioP2;P2;SDS_P1;SDS_P2;PMS_P1;PMS_P2;Temp;Humidity;BMP_temperature;BMP_pressure;BME280_temperature;BME280_humidity;BME280_pressure;Samples;Min_cycle;Max_cycle;Signal;HPM_P1;HPM_P2
2022/06/30 00:01:02;;;;;;;8.25;2.85;;;;;;;16.89;100.00;93178.16;5009600;28;20473;-74
2022/06/30 00:03:29;;;;;;;6.30;3.95;;;;;;;16.88;100.00;93174.00;5009458;28;20042;-74
2022/06/30 00:05:56;;;;;;;6.25;3.58;;;;;;;16.82;100.00;93178.38;5009356;28;20394;-74
2022/06/30 00:08:23;;;;;;;7.32;3.55;;;;;;;16.78;100.00;93174.72;5009609;28;20071;-74
2022/06/30 00:10:51;;;;;;;4.30;3.20;;;;;;;16.73;100.00;93172.09;5009301;28;20517;-75
2022/06/30 00:13:17;;;;;;;4.80;3.17;;;;;;;16.60;100.00;93177.69;5009491;28;20042;-74
2022/06/30 00:15:44;;;;;;;4.72;3.63;;;;;;;16.58;100.00;93174.56;5009404;28;20453;-74
2022/06/30 00:18:11;;;;;;;5.53;4.05;;;;;;;16.64;100.00;93170.97;5009144;28;20049;-73
2022/06/30 00:20:38;;;;;;;6.43;3.33;;;;;;;16.66;100.00;93164.50;5006772;28;20449;-74
2022/06/30 00:23:04;;;;;;;5.45;4.13;;;;;;;16.63;100.00;93170.22;5008801;28;20480;-74
2022/06/30 00:25:31;;;;;;;4.50;3.45;;;;;;;16.62;100.00;93166.03;5008902;28;20151;-74
2022/06/30 00:27:59;;;;;;;5.40;3.75;;;;;;;16.61;100.00;93156.69;5009126;28;20129;-73
2022/06/30 00:30:26;;;;;;;6.50;4.15;;;;;;;16.60;100.00;93165.50;5008832;28;20049;-73
2022/06/30 00:32:53;;;;;;;6.32;3.35;;;;;;;16.53;100.00;93160.53;5009028;28;20414;-73
2022/06/30 00:35:20;;;;;;;6.18;3.97;;;;;;;16.56;100.00;93157.44;5006956;28;20077;-73
2022/06/30 00:37:47;;;;;;;7.18;4.55;;;;;;;16.46;100.00;93143.59;5009002;28;20049;-73
2022/06/30 00:40:14;;;;;;;4.57;3.28;;;;;;;16.45;100.00;93162.78;5008946;28;20042;-73
2022/06/30 00:42:40;;;;;;;6.30;3.55;;;;;;;16.39;100.00;93159.38;5008759;28;20053;-73
2022/06/30 00:45:10;;;;;;;4.80;3.92;;;;;;;16.37;100.00;93153.66;5008900;28;20046;-74
2022/06/30 00:47:37;;;;;;;5.10;3.90;;;;;;;16.33;100.00;93158.56;5006220;28;20056;-73
2022/06/30 00:50:05;;;;;;;7.53;3.53;;;;;;;16.29;100.00;93145.31;5009034;28;20445;-74
2022/06/30 00:52:36;;;;;;;7.25;3.80;;;;;;;16.32;100.00;93153.59;5008691;28;20105;-74
2022/06/30 00:55:04;;;;;;;6.78;3.47;;;;;;;16.09;100.00;93130.38;5008498;28;20461;-74
2022/06/30 00:57:32;;;;;;;6.97;3.80;;;;;;;16.03;100.00;93139.13;5008713;28;20088;-73
2022/06/30 01:00:00;;;;;;;9.35;3.83;;;;;;;15.92;100.00;93127.84;5008657;28;20096;-73
2022/06/30 01:02:29;;;;;;;5.13;3.65;;;;;;;15.94;100.00;93135.41;5008463;28;20565;-73
2022/06/30 01:04:56;;;;;;;5.25;3.40;;;;;;;15.93;100.00;93142.41;5008766;28;20134;-74
2022/06/30 01:07:23;;;;;;;5.53;3.70;;;;;;;15.95;100.00;93142.94;5008761;28;20104;-74
2022/06/30 01:12:43;;;;;;;5.95;4.22;;;;;;;15.96;100.00;93136.72;5007843;28;20053;-73
2022/06/30 01:15:10;;;;;;;;;;;;;;;15.93;100.00;93137.22;5009112;28;20387;-74
2022/06/30 01:17:38;;;;;;;6.95;3.92;;;;;;;15.89;100.00;93144.66;5006052;28;19921;-74
2022/06/30 01:20:06;;;;;;;4.10;3.40;;;;;;;15.86;100.00;93128.81;5008474;28;20109;-73
2022/06/30 01:22:35;;;;;;;5.85;3.60;;;;;;;15.98;100.00;93147.59;5008542;28;20060;-74
2022/06/30 01:25:02;;;;;;;6.43;3.88;;;;;;;16.02;100.00;93147.94;5008649;28;20449;-74
2022/06/30 01:27:28;;;;;;;4.63;3.00;;;;;;;16.04;100.00;93148.47;5008397;28;20046;-73
2022/06/30 01:29:56;;;;;;;5.70;3.95;;;;;;;16.06;100.00;93143.03;5008433;28;20444;-73
2022/06/30 01:32:23;;;;;;;5.20;4.15;;;;;;;15.97;100.00;93138.28;5008455;28;20494;-74
2022/06/30 01:34:49;;;;;;;6.20;4.10;;;;;;;15.96;100.00;93147.09;5008447;28;20552;-74
2022/06/30 01:37:16;;;;;;;5.30;3.58;;;;;;;15.96;100.00;93138.53;5012241;28;20049;-73
2022/06/30 01:39:44;;;;;;;6.22;3.80;;;;;;;15.86;100.00;93128.81;5012043;28;20088;-73
2022/06/30 01:42:12;;;;;;;5.03;3.80;;;;;;;15.84;100.00;93139.41;5012009;28;20044;-75
2022/06/30 01:44:39;;;;;;;6.53;4.10;;;;;;;15.81;100.00;93144.31;5011750;28;20556;-75
2022/06/30 01:47:06;;;;;;;5.00;3.97;;;;;;;15.73;100.00;93148.09;5011833;28;20112;-74
2022/06/30 01:49:33;;;;;;;6.07;3.83;;;;;;;15.66;100.00;93142.34;5011767;28;20042;-74
2022/06/30 01:52:00;;;;;;;6.82;4.10;;;;;;;15.71;100.00;93148.38;5011897;28;20046;-74
2022/06/30 01:54:26;;;;;;;5.68;4.55;;;;;;;15.72;100.00;93144.75;5011742;28;20435;-73
2022/06/30 01:56:54;;;;;;;9.75;3.92;;;;;;;15.69;100.00;93142.63;5011815;28;20445;-74
2022/06/30 01:59:21;;;;;;;5.88;4.10;;;;;;;15.61;100.00;93136.06;5011593;28;20120;-74
2022/06/30 02:01:48;;;;;;;9.70;4.10;;;;;;;15.53;100.00;93133.94;5011687;28;20050;-75
2022/06/30 02:06:59;;;;;;;4.78;4.05;;;;;;;15.09;100.00;93142.47;4998406;28;20535;-73
2022/06/30 02:09:26;;;;;;;5.10;4.20;;;;;;;15.20;100.00;93146.75;5011959;28;20088;-73
2022/06/30 02:12:45;;;;;;;5.75;4.40;;;;;;;15.28;100.00;93142.19;5011838;28;20050;-73
2022/06/30 02:14:45;;;;;;;6.40;4.53;;;;;;;15.27;100.00;93138.03;5011924;28;20042;-73
2022/06/30 02:17:11;;;;;;;6.45;4.57;;;;;;;15.36;100.00;93149.50;5011836;28;20448;-73
2022/06/30 02:19:38;;;;;;;5.57;4.55;;;;;;;15.43;100.00;93155.31;5012106;28;20046;-73
2022/06/30 02:22:05;;;;;;;5.30;4.22;;;;;;;15.48;100.00;93150.19;5011999;28;20092;-73
2022/06/30 02:24:32;;;;;;;5.15;4.10;;;;;;;15.57;100.00;93157.53;5011750;28;20053;-73
2022/06/30 02:27:01;;;;;;;6.20;3.80;;;;;;;15.59;100.00;93152.88;5011565;28;20050;-73
2022/06/30 02:29:27;;;;;;;6.82;3.78;;;;;;;15.59;100.00;93151.06;5011821;28;20053;-73
2022/06/30 02:31:54;;;;;;;6.45;4.13;;;;;;;15.46;100.00;93139.28;5011778;28;20050;-73
2022/06/30 02:34:21;;;;;;;6.28;4.20;;;;;;;15.57;100.00;93153.13;5011649;28;20148;-73
2022/06/30 02:36:48;;;;;;;7.28;4.47;;;;;;;15.58;100.00;93153.91;5011164;28;20112;-73
2022/06/30 02:39:14;;;;;;;5.43;4.13;;;;;;;15.57;100.00;93150.56;5011671;28;20050;-73
2022/06/30 02:41:41;;;;;;;5.95;4.47;;;;;;;15.63;100.00;93164.31;5011730;28;20490;-73
2022/06/30 02:44:09;;;;;;;7.50;3.92;;;;;;;15.65;100.00;93159.69;5011403;28;20046;-73
2022/06/30 02:46:36;;;;;;;4.95;3.60;;;;;;;15.56;100.00;93159.31;5010821;28;20045;-73
2022/06/30 02:49:03;;;;;;;4.28;3.38;;;;;;;15.58;100.00;93165.06;5011469;28;20053;-73
2022/06/30 02:51:30;;;;;;;4.90;3.83;;;;;;;15.53;100.00;93154.63;5011032;28;20497;-73
2022/06/30 02:53:57;;;;;;;4.80;3.92;;;;;;;15.45;100.00;93150.66;5011125;28;20132;-73
2022/06/30 02:56:23;;;;;;;5.00;3.67;;;;;;;15.39;100.00;93159.41;5011099;28;20046;-74
2022/06/30 02:58:50;;;;;;;5.57;4.47;;;;;;;15.32;100.00;93164.75;5010913;28;20046;-74
2022/06/30 03:01:18;;;;;;;8.32;4.40;;;;;;;15.31;100.00;93163.19;5011142;28;20100;-74
2022/06/30 03:03:45;;;;;;;8.20;4.30;;;;;;;15.26;100.00;93155.34;5011233;28;20119;-74
2022/06/30 03:06:12;;;;;;;5.32;4.10;;;;;;;15.32;100.00;93161.38;4997808;28;20051;-74
2022/06/30 03:08:39;;;;;;;8.85;4.63;;;;;;;15.31;100.00;93154.63;5010550;28;20099;-74
2022/06/30 03:11:06;;;;;;;8.85;4.80;;;;;;;15.33;100.00;93155.94;5010817;28;20096;-73
2022/06/30 03:13:32;;;;;;;10.05;5.13;;;;;;;15.31;100.00;93159.78;5011039;28;20112;-73
2022/06/30 03:16:01;;;;;;;8.77;4.78;;;;;;;15.34;100.00;93159.34;5011050;28;20092;-73
2022/06/30 03:18:29;;;;;;;13.02;5.07;;;;;;;15.40;100.00;93158.38;5010755;28;20049;-73
2022/06/30 03:20:56;;;;;;;10.70;5.07;;;;;;;15.43;100.00;93160.47;4992815;28;20050;-73
2022/06/30 03:23:23;;;;;;;8.93;4.22;;;;;;;15.38;100.00;93155.25;5009645;28;20129;-73
2022/06/30 03:25:50;;;;;;;8.63;4.88;;;;;;;15.38;100.00;93155.25;5010524;28;20045;-73
2022/06/30 03:28:17;;;;;;;7.72;4.63;;;;;;;15.28;100.00;93142.94;5010661;28;20661;-73
2022/06/30 03:30:45;;;;;;;10.57;4.90;;;;;;;15.35;100.00;93156.50;5010525;28;20125;-73
2022/06/30 03:33:12;;;;;;;10.55;5.35;;;;;;;15.31;100.00;93152.03;5010187;28;20512;-74
2022/06/30 03:35:40;;;;;;;8.07;5.50;;;;;;;15.28;100.00;93147.34;5010200;28;20141;-74
2022/06/30 03:38:07;;;;;;;7.60;5.22;;;;;;;15.26;100.00;93145.00;5010189;28;20046;-73
2022/06/30 03:40:34;;;;;;;9.18;4.85;;;;;;;15.26;100.00;93149.38;5010503;28;20132;-73
2022/06/30 03:43:02;;;;;;;10.10;5.10;;;;;;;15.27;100.00;93159.50;5010252;28;20046;-73
2022/06/30 03:45:29;;;;;;;7.15;4.80;;;;;;;15.27;100.00;93149.16;5010391;28;20119;-73
2022/06/30 03:47:56;;;;;;;6.97;5.07;;;;;;;15.29;100.00;93149.72;5010208;28;20045;-73
2022/06/30 03:50:24;;;;;;;9.55;5.82;;;;;;;15.15;100.00;93127.78;5009886;28;20050;-73
2022/06/30 03:52:52;;;;;;;11.40;6.32;;;;;;;15.41;100.00;93159.16;5009823;28;20037;-73
2022/06/30 03:55:19;;;;;;;9.95;5.80;;;;;;;14.82;100.00;93048.25;5009799;28;20522;-74
2022/06/30 03:57:46;;;;;;;12.95;6.60;;;;;;;15.49;100.00;93148.38;5009100;28;20046;-74
2022/06/30 04:00:14;;;;;;;11.00;6.20;;;;;;;15.53;100.00;93146.88;5007266;28;20457;-74
2022/06/30 04:02:42;;;;;;;8.57;6.32;;;;;;;15.60;100.00;93147.47;5009315;28;20046;-75
2022/06/30 04:05:09;;;;;;;10.93;7.43;;;;;;;15.52;100.00;93144.53;5006630;28;20141;-74
2022/06/30 04:07:40;;;;;;;13.98;6.43;;;;;;;15.65;100.00;93164.09;5006395;28;20050;-74
2022/06/30 04:10:09;;;;;;;10.68;6.70;;;;;;;15.70;100.00;93156.38;5007294;28;20467;-73
2022/06/30 04:12:37;;;;;;;9.52;6.70;;;;;;;15.68;100.00;93142.88;5009503;28;20042;-73
2022/06/30 04:15:04;;;;;;;7.85;6.40;;;;;;;15.83;100.00;93156.00;5009693;28;20096;-73
2022/06/30 04:17:34;;;;;;;11.73;6.22;;;;;;;15.92;100.00;93152.97;5009126;28;20498;-73
2022/06/30 04:20:02;;;;;;;8.32;5.43;;;;;;;16.01;100.00;93146.34;4989871;28;20046;-76
2022/06/30 04:22:29;;;;;;;6.63;5.55;;;;;;;16.05;100.00;93157.03;4989769;28;20046;-73
2022/06/30 04:24:56;;;;;;;7.65;5.60;;;;;;;16.11;100.00;93150.84;4996630;28;20556;-74
2022/06/30 04:27:24;;;;;;;9.30;5.63;;;;;;;16.17;100.00;93158.41;5009155;28;20045;-74
2022/06/30 04:29:51;;;;;;;7.75;5.65;;;;;;;16.26;100.00;93163.16;5009656;28;20103;-73
2022/06/30 04:35:02;;;;;;;6.80;5.32;;;;;;;16.34;100.00;93152.34;5009367;28;20057;-73
2022/06/30 04:37:28;;;;;;;8.05;6.20;;;;;;;16.45;100.00;93166.19;5009342;28;20587;-74
2022/06/30 04:41:23;;;;;;;12.40;6.85;;;;;;;16.50;100.00;93157.66;5009350;28;20088;-73
2022/06/30 04:42:42;;;;;;;10.65;6.32;;;;;;;16.55;100.00;93163.66;5005989;28;20042;-73
2022/06/30 04:45:10;;;;;;;9.90;6.15;;;;;;;16.64;100.00;93170.97;4994923;28;20608;-74
2022/06/30 04:47:37;;;;;;;11.20;6.53;;;;;;;16.69;100.00;93153.66;5008814;28;20056;-74
2022/06/30 04:50:05;;;;;;;7.28;5.43;;;;;;;16.82;100.00;93162.03;5008787;28;20145;-74
2022/06/30 04:52:32;;;;;;;10.52;5.53;;;;;;;16.91;100.00;93157.16;5008866;28;20049;-74
2022/06/30 04:54:58;;;;;;;8.05;6.00;;;;;;;16.94;100.00;93143.69;5008712;28;20091;-74
2022/06/30 04:57:25;;;;;;;7.82;5.47;;;;;;;17.04;100.00;93158.56;5008772;28;20050;-74
2022/06/30 04:59:53;;;;;;;9.88;5.65;;;;;;;17.12;100.00;93147.69;5008769;28;20053;-75
2022/06/30 05:02:20;;;;;;;9.73;5.95;;;;;;;17.27;100.00;93167.75;5005246;28;20494;-75
2022/06/30 05:04:47;;;;;;;7.88;5.68;;;;;;;17.30;100.00;93163.88;4995869;28;20049;-74
2022/06/30 05:07:13;;;;;;;9.05;5.53;;;;;;;17.44;100.00;93159.78;4997493;28;20151;-75
2022/06/30 05:09:40;;;;;;;10.60;6.10;;;;;;;17.57;100.00;93161.16;5010427;28;20058;-75
2022/06/30 05:12:08;;;;;;;10.80;5.63;;;;;;;17.70;100.00;93166.91;5012858;28;20061;-75
2022/06/30 05:14:35;;;;;;;10.68;6.90;;;;;;;17.77;100.00;93165.63;5013014;28;20091;-75
2022/06/30 05:17:04;;;;;;;9.68;6.22;;;;;;;17.81;100.00;93152.91;5012798;28;20050;-74
2022/06/30 05:19:30;;;;;;;9.00;5.78;;;;;;;18.07;100.00;93175.59;5012616;28;20084;-75
2022/06/30 05:21:57;;;;;;;9.20;6.00;;;;;;;18.18;100.00;93171.22;5009220;28;20520;-75
2022/06/30 05:27:08;;;;;;;10.52;6.38;;;;;;;18.57;100.00;93181.13;5012693;28;20107;-75
2022/06/30 05:29:35;;;;;;;9.00;6.10;;;;;;;18.73;100.00;93178.50;5001987;28;20453;-74
2022/06/30 05:32:04;;;;;;;10.63;6.68;;;;;;;18.96;100.00;93183.19;5009656;28;20050;-75
2022/06/30 05:34:31;;;;;;;11.68;6.28;;;;;;;19.10;100.00;93180.06;5011968;28;20057;-74
2022/06/30 05:36:57;;;;;;;10.25;5.60;;;;;;;19.29;100.00;93179.50;5012471;28;20054;-74
2022/06/30 05:39:24;;;;;;;10.88;7.00;;;;;;;19.55;99.29;93182.03;5012944;28;20051;-74
2022/06/30 05:41:51;;;;;;;15.32;9.18;;;;;;;19.75;98.46;93181.97;5012415;28;20092;-73
2022/06/30 05:44:18;;;;;;;17.00;9.15;;;;;;;20.08;95.56;93186.78;5012689;28;20096;-73
2022/06/30 05:46:45;;;;;;;13.45;8.00;;;;;;;20.39;93.87;93194.41;5012740;28;20049;-73
2022/06/30 05:49:13;;;;;;;19.90;9.82;;;;;;;20.75;93.08;93195.19;5012399;28;20049;-73
2022/06/30 05:51:39;;;;;;;20.42;10.73;;;;;;;21.08;92.18;93204.09;5012420;28;20049;-73
2022/06/30 05:54:06;;;;;;;19.88;9.85;;;;;;;21.34;89.33;93192.63;5012352;28;20045;-73
2022/06/30 05:56:33;;;;;;;23.02;10.98;;;;;;;21.49;85.88;93195.03;5012494;28;20042;-73
2022/06/30 05:59:00;;;;;;;22.90;9.90;;;;;;;21.67;86.10;93194.59;5012569;28;20100;-73
2022/06/30 06:01:27;;;;;;;17.80;9.90;;;;;;;21.72;82.44;93189.34;5012245;28;20039;-73
2022/06/30 06:03:53;;;;;;;21.00;10.43;;;;;;;22.11;81.07;93192.78;5012377;28;20585;-73
2022/06/30 06:06:22;;;;;;;19.20;9.63;;;;;;;22.42;80.93;93192.34;4998207;28;20182;-73
2022/06/30 06:08:48;;;;;;;22.35;10.38;;;;;;;22.51;79.99;93193.28;5012168;28;20119;-73
2022/06/30 06:11:15;;;;;;;20.23;9.48;;;;;;;22.85;78.64;93194.09;5012009;28;20655;-73
2022/06/30 06:13:42;;;;;;;23.27;10.10;;;;;;;23.25;78.04;93191.06;5009551;28;20674;-73
2022/06/30 06:16:09;;;;;;;26.85;11.32;;;;;;;23.70;76.56;93184.50;5000188;28;20449;-73
2022/06/30 06:18:35;;;;;;;24.02;11.52;;;;;;;23.76;75.08;93191.19;5012055;28;20045;-73
2022/06/30 06:21:02;;;;;;;29.73;13.90;;;;;;;23.90;73.15;93188.56;5011002;28;20053;-73
2022/06/30 06:23:30;;;;;;;25.45;12.45;;;;;;;24.27;71.85;93184.13;5011810;28;20560;-73
2022/06/30 06:25:57;;;;;;;28.20;11.82;;;;;;;24.66;70.36;93191.66;5011930;28;20050;-73
2022/06/30 06:31:08;;;;;;;29.75;12.65;;;;;;;25.50;64.41;93188.56;5011481;28;20073;-73
2022/06/30 06:33:35;;;;;;;23.67;11.95;;;;;;;25.16;64.08;93189.97;5011614;28;20101;-74
2022/06/30 06:36:02;;;;;;;22.05;11.38;;;;;;;24.67;62.88;93187.97;5011478;28;20092;-74
2022/06/30 06:38:30;;;;;;;21.85;10.30;;;;;;;25.44;60.85;93185.31;5009659;28;20042;-74
2022/06/30 06:40:57;;;;;;;20.55;9.80;;;;;;;25.99;63.23;93177.25;5010145;28;20054;-73
2022/06/30 06:43:24;;;;;;;19.88;9.57;;;;;;;26.06;60.15;93176.81;5007317;28;20050;-73
2022/06/30 06:45:50;;;;;;;13.40;6.97;;;;;;;25.89;57.16;93176.47;5008196;28;20516;-73
2022/06/30 06:48:17;;;;;;;11.95;5.95;;;;;;;25.63;56.60;93186.94;5009583;28;20556;-73
2022/06/30 06:50:44;;;;;;;12.23;6.07;;;;;;;25.67;58.44;93181.84;5011104;28;20045;-73
2022/06/30 06:53:10;;;;;;;13.30;7.05;;;;;;;25.46;61.75;93185.00;5011240;28;20108;-73
2022/06/30 06:55:39;;;;;;;11.15;6.25;;;;;;;25.90;60.29;93179.88;5010725;28;20045;-73
2022/06/30 06:58:08;;;;;;;12.02;6.22;;;;;;;26.02;60.62;93176.66;5011361;28;20100;-73
2022/06/30 07:00:35;;;;;;;13.77;6.20;;;;;;;26.01;56.51;93175.88;5011079;28;20046;-73
2022/06/30 07:03:02;;;;;;;10.70;5.72;;;;;;;26.39;59.25;93177.16;5011195;28;20119;-73
2022/06/30 07:05:28;;;;;;;9.95;6.07;;;;;;;26.41;60.45;93172.38;5003111;28;20050;-74
2022/06/30 07:07:59;;;;;;;13.15;5.13;;;;;;;26.46;57.52;93173.28;5005092;28;20042;-74
2022/06/30 07:10:27;;;;;;;9.65;4.80;;;;;;;26.53;59.70;93171.72;5010978;28;20104;-74
2022/06/30 07:12:55;;;;;;;10.20;4.72;;;;;;;26.27;60.00;93177.00;5011210;28;20092;-74
2022/06/30 07:15:22;;;;;;;8.00;4.30;;;;;;;26.49;58.04;93176.09;5010665;28;20418;-74
2022/06/30 07:17:50;;;;;;;6.50;4.10;;;;;;;26.91;57.62;93158.97;5010860;28;20140;-74
2022/06/30 07:20:17;;;;;;;7.25;4.35;;;;;;;26.62;55.24;93179.63;5010741;28;20065;-74
2022/06/30 07:22:43;;;;;;;10.40;4.85;;;;;;;27.04;55.27;93175.72;5010565;28;20053;-74
2022/06/30 07:25:10;;;;;;;7.70;4.40;;;;;;;27.56;54.45;93173.97;5010697;28;20050;-74
2022/06/30 07:27:37;;;;;;;8.95;4.07;;;;;;;28.05;54.26;93170.91;5010547;28;20054;-74
2022/06/30 07:30:07;;;;;;;7.50;4.10;;;;;;;28.67;51.38;93165.97;5010280;28;20446;-74
2022/06/30 07:32:35;;;;;;;6.55;4.03;;;;;;;28.97;48.47;93170.34;5010603;28;20422;-74
2022/06/30 07:35:02;;;;;;;4.50;3.40;;;;;;;28.24;49.26;93159.94;5010436;28;20156;-74
2022/06/30 07:37:28;;;;;;;6.68;3.80;;;;;;;28.38;49.67;93159.66;5000763;28;20050;-74
2022/06/30 07:39:55;;;;;;;7.13;4.03;;;;;;;28.40;48.88;93154.84;5006624;28;20053;-74
2022/06/30 07:42:22;;;;;;;4.88;3.47;;;;;;;28.57;47.48;93163.72;5010580;28;20054;-74
2022/06/30 07:44:49;;;;;;;5.43;3.30;;;;;;;28.77;48.75;93161.34;5010158;28;20053;-74
2022/06/30 07:47:17;;;;;;;6.45;3.85;;;;;;;29.41;48.35;93164.59;5010406;28;20046;-74
2022/06/30 07:49:43;;;;;;;6.25;3.47;;;;;;;29.37;45.22;93160.28;5010078;28;20807;-74
2022/06/30 07:52:10;;;;;;;5.68;3.63;;;;;;;29.24;44.91;93162.91;5009993;28;20108;-74
2022/06/30 07:54:37;;;;;;;7.55;4.00;;;;;;;29.37;45.26;93165.56;5009909;28;20502;-74
2022/06/30 07:57:05;;;;;;;10.18;4.53;;;;;;;29.54;48.46;93162.75;5010364;28;20417;-74
2022/06/30 07:59:31;;;;;;;9.68;4.50;;;;;;;29.84;45.89;93157.19;5010087;28;20100;-74
2022/06/30 08:01:59;;;;;;;7.38;4.38;;;;;;;29.69;45.02;93155.22;5009921;28;20498;-74
2022/06/30 08:04:28;;;;;;;6.80;4.43;;;;;;;29.39;45.17;93160.72;5010208;28;20133;-74
2022/06/30 08:06:54;;;;;;;8.77;4.18;;;;;;;30.18;45.52;93158.94;4996068;28;20046;-74
2022/06/30 08:09:21;;;;;;;6.97;3.83;;;;;;;30.74;44.92;93155.56;5010053;28;20053;-74
2022/06/30 08:11:48;;;;;;;7.90;4.10;;;;;;;31.23;42.49;93152.97;5009881;28;20046;-74
2022/06/30 08:14:15;;;;;;;8.73;4.43;;;;;;;30.71;43.18;93160.75;5010013;28;20108;-74
2022/06/30 08:16:41;;;;;;;6.65;4.03;;;;;;;31.07;42.13;93156.38;5009881;28;20042;-74
2022/06/30 08:19:08;;;;;;;7.22;3.45;;;;;;;31.37;41.97;93157.88;5009846;28;20089;-74
2022/06/30 08:21:36;;;;;;;7.75;3.63;;;;;;;31.42;40.75;93147.00;5009683;28;20045;-74
2022/06/30 08:24:03;;;;;;;8.65;3.83;;;;;;;31.50;41.93;93154.00;5009709;28;20116;-74
2022/06/30 08:26:31;;;;;;;8.73;4.50;;;;;;;31.77;41.52;93154.22;5009526;28;20581;-74
2022/06/30 08:28:58;;;;;;;9.40;4.57;;;;;;;32.10;41.64;93153.03;5009686;28;20141;-74
2022/06/30 08:31:25;;;;;;;7.75;4.40;;;;;;;32.47;41.28;93151.13;5009584;28;20421;-74
2022/06/30 08:33:52;;;;;;;5.43;3.28;;;;;;;32.64;39.49;93158.66;5009531;28;20120;-74
2022/06/30 08:36:19;;;;;;;8.10;3.78;;;;;;;32.29;39.57;93156.06;5009721;28;20054;-74
2022/06/30 08:38:47;;;;;;;7.95;4.05;;;;;;;32.61;38.75;93155.94;5009005;28;20053;-74
2022/06/30 08:43:59;;;;;;;;;;;;;;;31.88;38.79;93165.09;5009405;28;20053;-74
2022/06/30 08:46:27;;;;;;;11.93;4.53;;;;;;;30.57;40.18;93161.91;5009630;28;19983;-74
2022/06/30 08:48:54;;;;;;;7.05;3.50;;;;;;;30.65;41.71;93160.22;5009822;28;20461;-74
2022/06/30 08:51:22;;;;;;;5.60;3.85;;;;;;;30.39;42.59;93162.19;5009335;28;20488;-74
2022/06/30 08:53:53;;;;;;;7.53;3.75;;;;;;;31.14;41.88;93164.50;5009458;28;20115;-74
2022/06/30 08:56:21;;;;;;;7.75;4.35;;;;;;;31.85;42.12;93160.47;5009324;28;20092;-74
2022/06/30 08:58:51;;;;;;;9.40;3.42;;;;;;;32.64;40.79;93152.59;5009242;28;20418;-74
2022/06/30 09:01:19;;;;;;;5.57;3.78;;;;;;;32.75;38.22;93153.56;5009626;28;20100;-74
2022/06/30 09:03:45;;;;;;;8.10;3.72;;;;;;;32.39;39.28;93156.28;5008793;28;20104;-74
2022/06/30 09:06:13;;;;;;;7.18;3.70;;;;;;;32.65;39.55;93154.13;5008670;28;20042;-74
2022/06/30 09:08:40;;;;;;;5.75;3.80;;;;;;;32.23;37.46;93143.06;5008500;28;20128;-75
2022/06/30 09:11:08;;;;;;;10.20;4.00;;;;;;;32.26;38.76;93144.25;5007665;28;20053;-75
2022/06/30 09:13:43;;;;;;;9.55;3.97;;;;;;;32.60;41.02;93143.75;5007709;28;20054;-75
2022/06/30 09:16:10;;;;;;;4.93;3.25;;;;;;;32.76;40.24;93139.13;5008652;28;20461;-75
2022/06/30 09:18:38;;;;;;;10.57;3.65;;;;;;;33.21;39.34;93138.75;5008502;28;20046;-74
2022/06/30 09:21:14;;;;;;;8.13;4.10;;;;;;;33.73;39.08;93135.75;5008542;28;20050;-74
2022/06/30 09:23:43;;;;;;;7.70;3.47;;;;;;;33.35;37.99;93132.88;5009099;28;20124;-75
2022/06/30 09:26:18;;;;;;;7.80;3.35;;;;;;;32.71;39.84;93136.75;5008453;28;20453;-75
2022/06/30 09:28:47;;;;;;;8.05;3.95;;;;;;;33.44;38.72;93133.41;5009296;28;20125;-74
2022/06/30 09:31:16;;;;;;;6.95;3.40;;;;;;;33.03;37.60;93122.50;5008914;28;20049;-74
2022/06/30 09:33:47;;;;;;;4.82;3.30;;;;;;;33.52;38.62;93137.00;5008887;28;20046;-74
2022/06/30 09:36:22;;;;;;;7.03;3.58;;;;;;;33.71;38.64;93130.78;5008702;28;20058;-74
2022/06/30 09:39:04;;;;;;;;;;;;;;;33.40;38.13;93139.81;5007971;28;20162;-74
2022/06/30 09:41:34;;;;;;;6.28;3.60;;;;;;;33.38;38.02;93126.88;5007229;28;19968;-74
2022/06/30 09:44:01;;;;;;;7.65;3.53;;;;;;;33.76;38.21;93135.03;5008441;28;20133;-75
2022/06/30 09:46:28;;;;;;;7.30;3.72;;;;;;;32.96;39.47;93139.09;5008686;28;20100;-74
2022/06/30 09:48:55;;;;;;;6.10;3.38;;;;;;;32.86;39.05;93123.72;5008321;28;20046;-73
2022/06/30 09:51:22;;;;;;;8.18;3.72;;;;;;;33.20;39.98;93126.59;5008800;28;20124;-73
2022/06/30 09:54:07;;;;;;;5.63;3.53;;;;;;;32.99;38.80;93111.03;5008380;28;20556;-73
2022/06/30 09:56:36;;;;;;;10.98;4.03;;;;;;;32.46;40.34;93123.00;5010451;28;20056;-74
2022/06/30 09:59:05;;;;;;;6.65;3.55;;;;;;;33.17;39.85;93129.94;5012185;28;20104;-74
2022/06/30 10:01:50;;;;;;;7.95;3.85;;;;;;;32.77;40.26;93108.00;5012369;28;20041;-74
2022/06/30 10:04:17;;;;;;;;;;;;;;;32.75;40.56;93118.19;5007841;28;20088;-74
2022/06/30 10:06:45;;;;;;;6.88;3.78;;;;;;;32.64;40.68;93116.09;4998595;28;20047;-74
2022/06/30 10:09:15;;;;;;;10.20;4.15;;;;;;;31.58;45.20;93115.88;5011720;28;20086;-74
2022/06/30 10:11:44;;;;;;;7.38;4.40;;;;;;;31.80;47.41;93110.25;5012172;28;20042;-74
2022/06/30 10:14:12;;;;;;;5.93;4.25;;;;;;;32.08;45.56;93104.78;5011906;28;20050;-74
2022/06/30 10:16:41;;;;;;;7.40;3.70;;;;;;;31.53;45.47;93067.59;5011946;28;20054;-74
2022/06/30 10:19:09;;;;;;;7.75;3.78;;;;;;;32.23;44.89;93102.41;5011706;28;20057;-73
2022/06/30 10:21:37;;;;;;;6.70;4.15;;;;;;;32.11;44.88;93108.63;5011708;28;20548;-74
2022/06/30 10:24:05;;;;;;;4.72;3.67;;;;;;;32.78;44.67;93096.97;5011617;28;20045;-74
2022/06/30 10:29:19;;;;;;;8.73;4.15;;;;;;;33.05;45.66;93107.72;5011748;28;20057;-74
2022/06/30 10:31:51;;;;;;;5.97;4.13;;;;;;;32.60;43.29;93099.34;5011730;28;20077;-74
2022/06/30 10:34:25;;;;;;;7.13;4.70;;;;;;;33.50;42.67;93093.94;5011642;28;20116;-74
2022/06/30 10:37:00;;;;;;;5.82;3.85;;;;;;;33.66;43.73;93091.16;5011691;28;20135;-73
2022/06/30 10:39:42;;;;;;;9.15;4.60;;;;;;;32.71;44.75;93085.47;5011814;28;20100;-74
2022/06/30 10:42:10;;;;;;;4.82;3.58;;;;;;;32.88;44.84;93090.31;5011336;28;20535;-73
2022/06/30 10:44:39;;;;;;;5.43;3.85;;;;;;;31.99;45.38;93096.28;5010920;28;20042;-73
2022/06/30 10:47:09;;;;;;;6.45;3.92;;;;;;;32.30;46.70;93085.84;5011690;28;20410;-74
2022/06/30 10:49:51;;;;;;;5.10;3.95;;;;;;;32.37;45.11;93078.00;5010993;28;20156;-73
2022/06/30 10:52:20;;;;;;;4.78;3.72;;;;;;;32.59;42.66;93092.50;5011009;28;20088;-74
2022/06/30 10:54:47;;;;;;;5.65;4.13;;;;;;;32.68;42.33;93078.97;5010587;28;20556;-73
2022/06/30 10:57:16;;;;;;;5.53;3.85;;;;;;;31.49;45.42;93077.34;5011061;28;20045;-74
2022/06/30 10:59:44;;;;;;;5.60;4.03;;;;;;;31.50;45.78;93084.97;5010440;28;20045;-74
2022/06/30 11:02:27;;;;;;;6.72;4.53;;;;;;;31.95;44.98;93055.56;5010890;28;20050;-73
2022/06/30 11:05:24;;;;;;;7.03;4.22;;;;;;;32.84;43.59;93075.41;5008028;28;20054;-74
2022/06/30 11:07:51;;;;;;;4.82;3.72;;;;;;;33.20;43.59;93070.69;5008645;28;20100;-73
2022/06/30 11:10:19;;;;;;;4.95;3.63;;;;;;;32.31;43.02;93069.56;5009317;28;20060;-74
2022/06/30 11:13:07;;;;;;;5.30;4.15;;;;;;;31.13;45.72;93067.47;5010434;28;20061;-75
2022/06/30 11:15:55;;;;;;;8.65;4.30;;;;;;;31.03;46.11;93062.66;5001808;28;20429;-74
2022/06/30 11:18:24;;;;;;;8.18;4.00;;;;;;;30.21;46.16;93068.19;5010524;28;20046;-73
2022/06/30 11:20:52;;;;;;;13.15;4.88;;;;;;;31.12;46.89;93057.97;5010646;28;20052;-74
2022/06/30 11:23:20;;;;;;;6.53;4.40;;;;;;;30.39;46.79;93068.66;5010644;28;20548;-74
2022/06/30 11:28:35;;;;;;;8.05;4.53;;;;;;;30.64;47.00;93069.31;5010457;28;20056;-74
2022/06/30 11:31:03;;;;;;;7.70;4.60;;;;;;;31.02;45.36;93061.91;5010870;28;20054;-73
2022/06/30 11:33:30;;;;;;;9.23;4.38;;;;;;;30.80;47.12;93060.63;5010338;28;20049;-73
2022/06/30 11:36:07;;;;;;;8.48;4.05;;;;;;;30.50;45.86;93055.69;5010248;28;20556;-74
2022/06/30 11:38:34;;;;;;;5.75;4.38;;;;;;;31.04;46.39;93056.25;5010242;28;20056;-74
2022/06/30 11:43:53;;;;;;;5.22;3.50;;;;;;;31.03;42.52;93058.16;5010673;28;20072;-74
2022/06/30 11:46:21;;;;;;;5.80;3.55;;;;;;;30.93;42.30;93048.81;5010626;28;20133;-73
2022/06/30 11:48:49;;;;;;;6.65;3.60;;;;;;;31.71;43.70;93050.16;5010042;28;20452;-73
2022/06/30 11:51:16;;;;;;;4.38;3.05;;;;;;;32.04;42.32;93048.19;5010480;28;20053;-73
2022/06/30 11:53:43;;;;;;;8.27;3.47;;;;;;;32.05;42.05;93038.31;5010414;28;20053;-74
2022/06/30 11:56:11;;;;;;;5.28;3.30;;;;;;;31.90;40.98;93053.97;5009965;28;20045;-74
2022/06/30 11:58:38;;;;;;;4.38;3.00;;;;;;;31.94;41.45;93041.50;5010325;28;20432;-73